• Join FlightAware (Why Join?)
  • Login
  • US Flag 
01:58AM EDT


 

Airport Tracker/Info


-or-


 

Live Flight TrackerFlight Track Log ✈ N34VR ✈ 03-Sep-2013 ✈ KFXE - SVMI / CCS

Flight Track Log - Related Links

Times and Time Zones

All times are in EDT time to prevent confusion due to time zone crossing. See the N34VR flight status page for this flight to view local times or setup timezone preferences in your user account.

Time Position Orientation Groundspeed Altitude Reporting Facility
EDT Latitude Longitude Course Direction KTS MPH feet Rate Location/Type
09:34AM 26.2003 -80.1308 83° East 175 201 1,900  Level Miami Center
09:35AM 26.2058 -80.0800 83° East 245 282 2,100 180 Climbing Miami Center
09:36AM 26.2139 -79.9947 84° East 271 312 2,300 480 Climbing Miami Center
09:37AM 26.2231 -79.9531 76° East 260 299 2,900 2,100 Climbing Miami Center
09:38AM 26.2331 -79.8725 82° East 266 306 5,700 2,640 Climbing Miami Center
09:39AM 26.2453 -79.7917 80° East 302 348 8,200 2,460 Climbing Miami Center
09:40AM 26.2553 -79.6992 83° East 296 341 10,700 2,340 Climbing Miami Center
09:41AM 26.2675 -79.6069 82° East 296 341 12,900 2,220 Climbing Miami Center
09:42AM 26.2800 -79.5006 83° East 301 346 15,200 1,980 Climbing Miami Center
09:43AM 26.2775 -79.4100 92° East 317 365 16,900 1,620 Climbing Miami Center
09:44AM 26.2139 -79.3392 135° Southeast 286 329 18,500 1,680 Climbing Miami Center
09:45AM 26.1356 -79.2797 146° Southeast 308 354 20,300 1,740 Climbing Miami Center
09:46AM 26.0550 -79.2181 145° Southeast 333 383 22,000 1,620 Climbing Miami Center
09:47AM 25.9789 -79.1472 140° Southeast 351 404 23,600 1,560 Climbing Miami Center
09:48AM 25.9006 -79.0717 139° Southeast 364 419 25,200 1,500 Climbing Miami Center
09:49AM 25.8203 -78.9894 137° Southeast 381 438 26,700 1,500 Climbing Miami Center
09:50AM 25.7378 -78.9119 140° Southeast 386 444 28,300 1,500 Climbing Miami Center
09:51AM 25.6511 -78.8275 139° Southeast 398 458 29,800 1,440 Climbing Miami Center
09:52AM 25.5606 -78.7408 139° Southeast 409 471 31,200 1,500 Climbing Miami Center
09:53AM 25.4717 -78.6567 139° Southeast 421 484 32,900 1,500 Climbing Miami Center
09:54AM 25.3808 -78.5656 138° Southeast 427 491 34,200 1,260 Climbing Miami Center
09:55AM 25.2856 -78.4744 139° Southeast 437 503 35,500 1,200 Climbing Miami Center
09:56AM 25.1906 -78.3814 138° Southeast 449 517 36,600 1,140 Climbing Miami Center
09:57AM 25.0953 -78.2883 138° Southeast 454 522 37,800 1,200 Climbing Miami Center
09:58AM 25.0022 -78.1819 134° Southeast 459 528 39,100 1,500 Climbing Miami Center
09:59AM 24.9111 -78.0778 134° Southeast 466 536 40,800 1,440 Climbing Miami Center
10:00AM 24.8222 -77.9739 133° Southeast 466 536 42,000 1,080 Climbing Miami Center
10:01AM 24.7331 -77.8725 134° Southeast 460 529 43,000 1,140 Climbing Miami Center
10:02AM 24.6439 -77.7733 135° Southeast 460 529 44,300 780 Climbing Miami Center
10:03AM 24.5544 -77.6744 135° Southeast 460 529 44,600 300 Climbing Miami Center
10:04AM 24.4653 -77.5758 135° Southeast 460 529 45,000 180 Climbing Miami Center
10:05AM 24.3736 -77.4794 136° Southeast 460 529 45,000  Level Miami Center
10:06AM 24.2800 -77.3764 135° Southeast 460 529 45,000  Level Miami Center
10:07AM 24.1842 -77.2733 136° Southeast 471 542 45,000  Level Miami Center
10:08AM 24.0883 -77.1661 134° Southeast 477 549 45,000  Level Miami Center
10:09AM 23.9922 -77.0636 136° Southeast 483 556 45,000  Level Miami Center
10:10AM 23.8983 -76.9544 133° Southeast 483 556 45,000  Level Miami Center
10:11AM 23.8086 -76.8497 133° Southeast 483 556 45,000  Level Miami Center
10:12AM 23.7103 -76.7386 134° Southeast 483 556 45,000  Level Miami Center
10:13AM 23.6161 -76.6344 135° Southeast 460 529 45,000  Level Miami Center
10:14AM 23.5219 -76.5281 134° Southeast 476 548 45,000  Level Miami Center
10:15AM 23.4256 -76.4219 135° Southeast 488 562 45,000  Level Miami Center
10:16AM 23.3183 -76.3022 134° Southeast 493 567 45,000  Level Miami Center
10:17AM 23.2239 -76.1964 134° Southeast 493 567 45,000  Level Miami Center
10:18AM 23.1294 -76.0931 135° Southeast 487 560 45,000  Level Miami Center
10:19AM 23.0347 -75.9853 134° Southeast 487 560 45,000  Level Miami Center
10:20AM 22.9464 -75.8753 131° Southeast 487 560 45,000  Level Miami Center
10:21AM 22.8456 -75.7792 139° Southeast 475 547 45,000  Level Miami Center
10:22AM 22.7506 -75.6764 135° Southeast 475 547 45,000  Level Miami Center
10:23AM 22.6558 -75.5736 135° Southeast 480 552 45,000  Level Miami Center
10:24AM 22.5586 -75.4689 135° Southeast 486 559 45,000  Level Miami Center
10:25AM 22.4617 -75.3667 136° Southeast 486 559 45,000  Level Miami Center
10:26AM 22.3644 -75.2622 135° Southeast 486 559 45,000  Level Miami Center
10:27AM 22.2672 -75.1578 135° Southeast 486 559 45,000  Level Miami Center
10:28AM 22.1700 -75.0558 136° Southeast 486 559 45,000  Level Miami Center
10:29AM 22.0686 -74.9611 139° Southeast 486 559 45,000  Level Miami Center
10:30AM 21.9631 -74.8686 141° Southeast 486 559 45,000  Level Miami Center
10:31AM 21.8594 -74.7717 139° Southeast 491 565 45,000  Level Miami Center
10:32AM 21.7558 -74.6772 140° Southeast 491 565 45,000  Level Miami Center
10:33AM 21.6689 -74.5914 137° Southeast 485 558 45,000  Level Miami Center
10:34AM 21.5650 -74.4950 139° Southeast 485 558 45,000  Level Miami Center
10:35AM 21.4614 -74.4008 140° Southeast 491 565 45,000  Level Miami Center
10:36AM 21.3575 -74.3047 139° Southeast 491 565 45,000  Level Miami Center
10:37AM 21.2556 -74.2153 141° Southeast 491 565 45,000 -60 Level Miami Center
10:38AM 21.1517 -74.1194 139° Southeast 491 565 44,900  Descending Miami Center
10:39AM 21.0392 -74.0172 140° Southeast 491 565 45,000  Climbing Miami Center
10:40AM 20.9372 -73.9239 139° Southeast 486 559 45,000  Level Miami Center
10:41AM 20.8331 -73.8283 139° Southeast 486 559 45,000  Level Miami Center
10:42AM 20.7333 -73.7353 139° Southeast 491 565 45,000  Level Miami Center
10:43AM 20.6292 -73.6425 140° Southeast 491 565 45,000 -60 Level Miami Center
10:44AM 20.5128 -73.5719 150° Southeast 485 558 44,900 -60 Descending Miami Center
10:45AM 20.3986 -73.5017 150° Southeast 478 550 44,900  Level Miami Center
10:46AM 20.2867 -73.4314 150° Southeast 478 550 45,000  Climbing Miami Center
10:47AM 20.1703 -73.3636 151° Southeast 478 550 45,000  Level Miami Center
10:48AM 20.0561 -73.2917 149° Southeast 478 550 45,000  Level Miami Center
10:50AM 19.8646 -73.1764 150° Southeast  Level FlightAware Approximate
10:57AM 19.1052 -72.7221 151° Southeast  Level FlightAware Approximate
10:58AM 18.9966 -72.6576 151° Southeast  Level FlightAware Approximate
10:59AM 18.8880 -72.5931 151° Southeast  Level FlightAware Approximate
11:00AM 18.7793 -72.5287 151° Southeast  Level FlightAware Approximate
11:01AM 18.6707 -72.4644 151° Southeast  Level FlightAware Approximate
11:02AM 18.5620 -72.4002 151° Southeast  Level FlightAware Approximate
11:03AM 18.4533 -72.3361 151° Southeast  Level FlightAware Approximate
11:04AM 18.3446 -72.2720 151° Southeast  Level FlightAware Approximate
11:05AM 18.2358 -72.2081 151° Southeast  Level FlightAware Approximate
11:06AM 18.1271 -72.1442 151° Southeast  Level FlightAware Approximate
11:07AM 18.0183 -72.0804 151° Southeast  Level FlightAware Approximate
11:08AM 17.9095 -72.0166 151° Southeast  Level FlightAware Approximate
11:09AM 17.8007 -71.9530 151° Southeast  Level FlightAware Approximate
11:10AM 17.6919 -71.8894 151° Southeast  Level FlightAware Approximate
11:11AM 17.5830 -71.8259 151° Southeast  Level FlightAware Approximate
11:12AM 17.4741 -71.7625 151° Southeast  Level FlightAware Approximate
11:13AM 17.3637 -71.6984 153° Southeast  Level FlightAware Approximate
11:14AM 17.2530 -71.6385 153° Southeast  Level FlightAware Approximate
11:15AM 17.1423 -71.5788 153° Southeast  Level FlightAware Approximate
11:16AM 17.0316 -71.5191 153° Southeast  Level FlightAware Approximate
11:17AM 16.9209 -71.4595 153° Southeast  Level FlightAware Approximate
11:18AM 16.8101 -71.3999 153° Southeast  Level FlightAware Approximate
11:19AM 16.6993 -71.3404 153° Southeast  Level FlightAware Approximate
11:20AM 16.5886 -71.2810 153° Southeast  Level FlightAware Approximate
11:21AM 16.4778 -71.2217 153° Southeast  Level FlightAware Approximate
11:22AM 16.3669 -71.1624 153° Southeast  Level FlightAware Approximate
11:23AM 16.2561 -71.1032 153° Southeast  Level FlightAware Approximate
11:24AM 16.1453 -71.0441 153° Southeast  Level FlightAware Approximate
11:25AM 16.0344 -70.9850 153° Southeast  Level FlightAware Approximate
11:26AM 15.9233 -70.9265 153° Southeast  Level FlightAware Approximate
11:27AM 15.8120 -70.8683 153° Southeast  Level FlightAware Approximate
11:28AM 15.7007 -70.8102 153° Southeast  Level FlightAware Approximate
11:29AM 15.5894 -70.7522 153° Southeast  Level FlightAware Approximate
11:30AM 15.4781 -70.6942 153° Southeast  Level FlightAware Approximate
11:31AM 15.3667 -70.6363 153° Southeast  Level FlightAware Approximate
11:32AM 15.2554 -70.5785 153° Southeast  Level FlightAware Approximate
11:33AM 15.1440 -70.5207 153° Southeast  Level FlightAware Approximate
11:34AM 15.0326 -70.4629 153° Southeast  Level FlightAware Approximate
11:35AM 14.9212 -70.4053 153° Southeast  Level FlightAware Approximate
11:36AM 14.8098 -70.3476 153° Southeast  Level FlightAware Approximate
11:37AM 14.6984 -70.2901 153° Southeast  Level FlightAware Approximate
11:38AM 14.5869 -70.2326 153° Southeast  Level FlightAware Approximate
11:39AM 14.4755 -70.1752 153° Southeast  Level FlightAware Approximate
11:40AM 14.3640 -70.1178 153° Southeast  Level FlightAware Approximate
11:41AM 14.2525 -70.0605 154° Southeast  Level FlightAware Approximate
11:42AM 14.1410 -70.0032 154° Southeast  Level FlightAware Approximate
11:43AM 14.0295 -69.9460 154° Southeast  Level FlightAware Approximate
11:44AM 13.9180 -69.8888 154° Southeast  Level FlightAware Approximate
11:45AM 13.8065 -69.8317 154° Southeast  Level FlightAware Approximate
11:46AM 13.6949 -69.7747 154° Southeast  Level FlightAware Approximate
11:47AM 13.5834 -69.7177 154° Southeast  Level FlightAware Approximate
11:48AM 13.4718 -69.6608 154° Southeast  Level FlightAware Approximate
11:49AM 13.3602 -69.6039 154° Southeast  Level FlightAware Approximate
11:50AM 13.2486 -69.5471 154° Southeast  Level FlightAware Approximate
11:51AM 13.1370 -69.4903 154° Southeast  Level FlightAware Approximate
11:52AM 13.0253 -69.4336 154° Southeast  Level FlightAware Approximate
11:53AM 12.9137 -69.3769 154° Southeast  Level FlightAware Approximate
11:54AM 12.8020 -69.3203 154° Southeast  Level FlightAware Approximate
11:55AM 12.6904 -69.2637 154° Southeast  Level FlightAware Approximate
11:56AM 12.5787 -69.2072 154° Southeast  Level FlightAware Approximate
11:57AM 12.4670 -69.1507 154° Southeast  Level FlightAware Approximate
11:58AM 12.3555 -69.0939 152° Southeast  Level FlightAware Approximate
11:59AM 12.2456 -69.0339 152° Southeast  Level FlightAware Approximate
12:00PM 12.1447 -68.9614 136° Southeast  Level FlightAware Approximate
12:01PM 12.0557 -68.8723 136° Southeast  Level FlightAware Approximate
12:02PM 11.9658 -68.7842 139° Southeast  Level FlightAware Approximate
12:03PM 11.8723 -68.7001 139° Southeast  Level FlightAware Approximate
12:04PM 11.7807 -68.6140 136° Southeast  Level FlightAware Approximate
12:05PM 11.6917 -68.5250 136° Southeast  Level FlightAware Approximate
12:06PM 11.5950 -68.4450 136° Southeast  Level FlightAware Approximate
12:07PM 11.5142 -68.3492 138° Southeast  Level FlightAware Approximate
12:08PM 11.4212 -68.2647 138° Southeast  Level FlightAware Approximate
12:09PM 11.3282 -68.1802 138° Southeast  Level FlightAware Approximate
12:10PM 11.2352 -68.0956 138° Southeast  Level FlightAware Approximate
12:11PM 11.1427 -68.0106 137° Southeast  Level FlightAware Approximate
12:12PM 11.0517 -67.9240 137° Southeast  Level FlightAware Approximate
12:13PM 10.9606 -67.8374 137° Southeast  Level FlightAware Approximate
12:14PM 10.8695 -67.7510 137° Southeast  Level FlightAware Approximate
12:15PM 10.7797 -67.6630 135° Southeast  Level FlightAware Approximate
12:16PM 10.6864 -67.5798 147° Southeast  Level FlightAware Approximate
12:17PM 10.6574 -67.4644 95° East  Level FlightAware Approximate
12:18PM 10.6455 -67.3382 96° East  Level FlightAware Approximate
12:19PM 10.6333 -67.2121 90° East  Level FlightAware Approximate
12:20PM 10.6167 -67.0895 90° East  Level FlightAware Approximate
12:21PM 10.6031 -66.9906 90° East  Level Estimated
12:22PM 10.6031 -66.9906 90° East  Level Estimated
12:23PM 10.6031 -66.9906 90° East  Level Estimated
12:24PM 10.6031 -66.9906 90° East  Level Estimated
12:25PM 10.6031 -66.9906 90° East  Level Estimated
12:26PM 10.6031 -66.9906 90° East  Level Estimated
12:27PM 10.6031 -66.9906 90° East  Level Estimated
12:28PM 10.6031 -66.9906 90° East  Level Estimated
12:29PM 10.6031 -66.9906 90° East  Level Estimated
12:30PM 10.6031 -66.9906 90° East  Level Estimated
12:31PM 10.6031 -66.9906 90° East  Level Estimated
12:32PM 10.6031 -66.9906 90° East  Level Estimated
12:33PM 10.6031 -66.9906 90° East  Level Estimated
12:34PM 10.6031 -66.9906 90° East  Level Estimated
12:35PM 10.6031 -66.9906 90° East  Level Estimated
12:36PM 10.6031 -66.9906 90° East  Level Estimated
12:37PM 10.6031 -66.9906 90° East  Level Estimated